Time;durP1;ratioP1;P1;durP2;ratioP2;P2;SDS_P1;SDS_P2;PMS_P1;PMS_P2;Temp;Humidity;BMP_temperature;BMP_pressure;BME280_temperature;BME280_humidity;BME280_pressure;Samples;Min_cycle;Max_cycle;Signal;HPM_P1;HPM_P2
2022/11/10 00:01:18;;;;;;;16.80;15.40;;;;;;;;;;5044822;28;20184;-57
2022/11/10 00:03:43;;;;;;;17.73;16.13;;;;;;;;;;5036361;28;20182;-57
2022/11/10 00:06:08;;;;;;;16.25;14.73;;;;;;;;;;5047065;28;20262;-57
2022/11/10 00:08:34;;;;;;;16.27;14.80;;;;;;;;;;5045880;28;20950;-57
2022/11/10 00:11:05;;;;;;;16.23;14.77;;;;;;;;;;5046412;28;20520;-57
2022/11/10 00:13:31;;;;;;;17.13;15.80;;;;;;;;;;5047101;28;20198;-57
2022/11/10 00:18:41;;;;;;;17.17;15.63;;;;;;;;;;5033305;28;20606;-57
2022/11/10 00:21:07;;;;;;;18.80;17.20;;;;;;;;;;5044303;28;21225;-57
2022/11/10 00:23:32;;;;;;;19.87;18.17;;;;;;;;;;5032527;28;20647;-56
2022/11/10 00:25:58;;;;;;;19.80;18.10;;;;;;;;;;5036471;28;20682;-57
2022/11/10 00:28:23;;;;;;;22.37;20.47;;;;;;;;;;5040823;28;20269;-57
2022/11/10 00:30:48;;;;;;;22.03;19.93;;;;;;;;;;5037135;28;20512;-56
2022/11/10 00:33:13;;;;;;;26.07;23.73;;;;;;;;;;5031892;28;20554;-56
2022/11/10 00:35:38;;;;;;;25.35;23.05;;;;;;;;;;5032321;28;20281;-56
2022/11/10 00:38:03;;;;;;;23.48;21.40;;;;;;;;;;5041383;28;20198;-56
2022/11/10 00:40:29;;;;;;;22.85;20.75;;;;;;;;;;5031859;28;20167;-57
2022/11/10 00:42:54;;;;;;;22.67;20.50;;;;;;;;;;5045498;28;20180;-56
2022/11/10 00:45:19;;;;;;;23.17;21.13;;;;;;;;;;5036218;28;20258;-56
2022/11/10 00:47:44;;;;;;;24.33;22.03;;;;;;;;;;5033521;28;20186;-56
2022/11/10 00:50:10;;;;;;;24.07;21.97;;;;;;;;;;5041029;28;20606;-56
2022/11/10 00:52:35;;;;;;;22.20;20.20;;;;;;;;;;5040831;28;20233;-56
2022/11/10 00:55:00;;;;;;;22.70;20.53;;;;;;;;;;5036579;28;20198;-56
2022/11/10 00:57:25;;;;;;;23.33;21.33;;;;;;;;;;5043812;28;20180;-56
2022/11/10 00:59:50;;;;;;;25.60;23.30;;;;;;;;;;5033450;28;20168;-57
2022/11/10 01:02:15;;;;;;;25.23;23.03;;;;;;;;;;5036463;28;20173;-56
2022/11/10 01:04:41;;;;;;;26.00;23.40;;;;;;;;;;5037050;28;20260;-56
2022/11/10 01:07:06;;;;;;;26.10;24.00;;;;;;;;;;5040287;28;20535;-56
2022/11/10 01:09:31;;;;;;;25.13;22.80;;;;;;;;;;5045023;28;20606;-55
2022/11/10 01:11:56;;;;;;;24.57;22.40;;;;;;;;;;5045986;28;20296;-56
2022/11/10 01:14:21;;;;;;;24.13;21.90;;;;;;;;;;5041848;28;20198;-56
2022/11/10 01:16:46;;;;;;;22.97;20.73;;;;;;;;;;5034210;28;20193;-56
2022/11/10 01:19:12;;;;;;;23.10;20.90;;;;;;;;;;5039839;28;20510;-56
2022/11/10 01:21:37;;;;;;;23.60;21.60;;;;;;;;;;5051233;28;20164;-56
2022/11/10 01:24:02;;;;;;;24.52;22.30;;;;;;;;;;5031163;28;20258;-56
2022/11/10 01:26:27;;;;;;;24.80;22.60;;;;;;;;;;5042642;28;20183;-57
2022/11/10 01:28:52;;;;;;;27.83;20.93;;;;;;;;;;5046875;28;20169;-57
2022/11/10 01:31:19;;;;;;;24.63;22.43;;;;;;;;;;5036876;28;20224;-55
2022/11/10 01:33:44;;;;;;;22.70;20.70;;;;;;;;;;5037149;28;20200;-56
2022/11/10 01:36:10;;;;;;;22.13;20.23;;;;;;;;;;5048868;28;21268;-56
2022/11/10 01:38:36;;;;;;;20.47;18.67;;;;;;;;;;5050638;28;20259;-56
2022/11/10 01:41:02;;;;;;;18.10;16.50;;;;;;;;;;5034211;28;20607;-56
2022/11/10 01:43:28;;;;;;;12.77;11.63;;;;;;;;;;5028668;28;20927;-55
2022/11/10 01:46:00;;;;;;;12.17;11.00;;;;;;;;;;5029160;28;20592;-55
2022/11/10 01:48:51;;;;;;;8.20;6.97;;;;;;;;;;5042773;28;20189;-55
2022/11/10 01:51:23;;;;;;;10.97;9.93;;;;;;;;;;5039735;28;20653;-55
2022/11/10 01:53:51;;;;;;;12.13;10.70;;;;;;;;;;5031671;28;20796;-55
2022/11/10 01:56:16;;;;;;;20.37;18.67;;;;;;;;;;5038981;28;20643;-57
2022/11/10 01:58:45;;;;;;;21.50;19.70;;;;;;;;;;5050633;28;20674;-57
2022/11/10 02:01:10;;;;;;;20.47;18.67;;;;;;;;;;5036806;28;20174;-57
2022/11/10 02:03:41;;;;;;;21.53;19.70;;;;;;;;;;5044932;28;20612;-57
2022/11/10 02:06:07;;;;;;;22.63;20.63;;;;;;;;;;5038312;28;20193;-56
2022/11/10 02:08:33;;;;;;;22.17;20.00;;;;;;;;;;5049875;28;20591;-56
2022/11/10 02:10:58;;;;;;;17.30;15.60;;;;;;;;;;5035448;28;20200;-55
2022/11/10 02:13:23;;;;;;;17.20;15.70;;;;;;;;;;5038918;28;20216;-56
2022/11/10 02:15:49;;;;;;;10.63;9.67;;;;;;;;;;5031290;28;20209;-56
2022/11/10 02:18:14;;;;;;;11.03;9.93;;;;;;;;;;5049269;28;20181;-56
2022/11/10 02:20:42;;;;;;;9.60;8.70;;;;;;;;;;5043482;28;20200;-57
2022/11/10 02:23:11;;;;;;;7.83;7.20;;;;;;;;;;5047477;28;20330;-56
2022/11/10 02:25:36;;;;;;;7.90;7.10;;;;;;;;;;5042642;28;21683;-55
2022/11/10 02:28:01;;;;;;;5.77;5.13;;;;;;;;;;5032823;28;20708;-55
2022/11/10 02:30:27;;;;;;;4.13;3.83;;;;;;;;;;5030764;28;20189;-56
2022/11/10 02:32:52;;;;;;;4.67;3.90;;;;;;;;;;5036430;28;20173;-56
2022/11/10 02:35:17;;;;;;;5.30;3.93;;;;;;;;;;5045904;28;20189;-56
2022/11/10 02:37:42;;;;;;;3.90;3.50;;;;;;;;;;5031530;28;20272;-56
2022/11/10 02:40:08;;;;;;;3.67;3.20;;;;;;;;;;5032430;28;20251;-56
2022/11/10 02:42:33;;;;;;;4.10;3.60;;;;;;;;;;5040884;28;20216;-56
2022/11/10 02:44:58;;;;;;;3.85;3.47;;;;;;;;;;5042456;28;20283;-56
2022/11/10 02:47:23;;;;;;;3.57;3.27;;;;;;;;;;5041774;28;20237;-56
2022/11/10 02:49:48;;;;;;;3.90;3.60;;;;;;;;;;5037548;28;20180;-56
2022/11/10 02:52:14;;;;;;;5.80;4.40;;;;;;;;;;5045149;28;20178;-55
2022/11/10 02:54:39;;;;;;;5.03;3.30;;;;;;;;;;5032191;28;20288;-56
2022/11/10 02:57:04;;;;;;;4.40;3.58;;;;;;;;;;5036776;28;20170;-55
2022/11/10 02:59:29;;;;;;;4.18;3.85;;;;;;;;;;5036564;28;20182;-55
2022/11/10 03:01:54;;;;;;;3.50;3.20;;;;;;;;;;5032435;28;20178;-57
2022/11/10 03:04:19;;;;;;;9.83;9.00;;;;;;;;;;5031559;28;20273;-55
2022/11/10 03:06:45;;;;;;;11.67;10.73;;;;;;;;;;5048244;28;20178;-55
2022/11/10 03:09:10;;;;;;;10.20;9.20;;;;;;;;;;5038592;28;20590;-55
2022/11/10 03:11:35;;;;;;;11.47;10.47;;;;;;;;;;5038465;28;20205;-57
2022/11/10 03:14:00;;;;;;;8.80;8.13;;;;;;;;;;5040305;28;20578;-56
2022/11/10 03:16:25;;;;;;;10.07;9.20;;;;;;;;;;5037442;28;20757;-55
2022/11/10 03:18:51;;;;;;;8.13;7.43;;;;;;;;;;5041408;28;20204;-57
2022/11/10 03:21:16;;;;;;;8.20;7.40;;;;;;;;;;5049720;28;20594;-55
2022/11/10 03:23:41;;;;;;;6.37;5.77;;;;;;;;;;5030177;28;20197;-55
2022/11/10 03:26:06;;;;;;;5.47;5.00;;;;;;;;;;5041163;28;20196;-55
2022/11/10 03:28:32;;;;;;;6.70;6.10;;;;;;;;;;5048406;28;20698;-55
2022/11/10 03:30:57;;;;;;;6.10;5.00;;;;;;;;;;5036439;28;20260;-55
2022/11/10 03:33:22;;;;;;;5.60;5.10;;;;;;;;;;5047153;28;20177;-55
2022/11/10 03:35:47;;;;;;;4.90;4.40;;;;;;;;;;5044031;28;20658;-56
2022/11/10 03:38:12;;;;;;;4.33;3.93;;;;;;;;;;5033911;28;20276;-55
2022/11/10 03:40:37;;;;;;;5.73;3.67;;;;;;;;;;5035049;28;20185;-56
2022/11/10 03:43:03;;;;;;;5.27;3.60;;;;;;;;;;5042149;28;20214;-55
2022/11/10 03:45:28;;;;;;;5.43;3.73;;;;;;;;;;5045208;28;20208;-55
2022/11/10 03:47:53;;;;;;;5.13;4.60;;;;;;;;;;5031381;28;20179;-56
2022/11/10 03:50:18;;;;;;;4.87;3.80;;;;;;;;;;5028924;28;20182;-56
2022/11/10 03:52:44;;;;;;;6.80;3.90;;;;;;;;;;5035539;28;20226;-56
2022/11/10 03:55:10;;;;;;;6.50;5.90;;;;;;;;;;5036233;28;20206;-56
2022/11/10 03:57:35;;;;;;;6.10;5.60;;;;;;;;;;5035271;28;20174;-56
2022/11/10 04:00:01;;;;;;;9.90;9.00;;;;;;;;;;5032429;28;20610;-56
2022/11/10 04:02:26;;;;;;;9.50;8.80;;;;;;;;;;5039990;28;20212;-57
2022/11/10 04:10:19;;;;;;;12.80;11.20;;;;;;;;;;5045407;28;20719;-56
2022/11/10 04:15:43;;;;;;;13.00;11.80;;;;;;;;;;5042257;28;20247;-56
2022/11/10 04:18:24;;;;;;;13.53;12.23;;;;;;;;;;5037139;28;20764;-56
2022/11/10 04:20:51;;;;;;;11.77;10.77;;;;;;;;;;5040510;28;20612;-56
2022/11/10 04:23:35;;;;;;;12.53;11.03;;;;;;;;;;5037588;28;21232;-56
2022/11/10 04:28:52;;;;;;;12.00;11.00;;;;;;;;;;5032026;28;20617;-56
2022/11/10 04:31:18;;;;;;;11.60;10.50;;;;;;;;;;5036274;28;20644;-56
2022/11/10 04:33:44;;;;;;;11.87;10.87;;;;;;;;;;5046833;28;20644;-56
2022/11/10 04:36:10;;;;;;;13.20;12.10;;;;;;;;;;5036277;28;20659;-56
2022/11/10 04:38:36;;;;;;;11.70;10.60;;;;;;;;;;5038580;28;20605;-57
2022/11/10 04:41:01;;;;;;;11.77;10.57;;;;;;;;;;5042969;28;20937;-56
2022/11/10 04:43:27;;;;;;;11.17;10.10;;;;;;;;;;5048717;28;20175;-56
2022/11/10 04:45:52;;;;;;;11.80;10.60;;;;;;;;;;5038224;28;20194;-56
2022/11/10 04:48:17;;;;;;;11.17;10.20;;;;;;;;;;5034230;28;20186;-56
2022/11/10 04:50:43;;;;;;;11.73;10.73;;;;;;;;;;5044280;28;20213;-56
2022/11/10 04:53:08;;;;;;;11.73;10.63;;;;;;;;;;5051716;28;20277;-56
2022/11/10 04:55:33;;;;;;;11.23;9.53;;;;;;;;;;5049706;28;20326;-56
2022/11/10 04:57:58;;;;;;;12.50;11.30;;;;;;;;;;5051984;28;20166;-56
2022/11/10 05:00:23;;;;;;;11.23;10.17;;;;;;;;;;5050012;28;20275;-57
2022/11/10 05:02:48;;;;;;;12.60;11.60;;;;;;;;;;5050564;28;20172;-57
2022/11/10 05:05:14;;;;;;;13.63;12.10;;;;;;;;;;5038691;28;20673;-56
2022/11/10 05:07:39;;;;;;;12.10;10.90;;;;;;;;;;5053177;28;20181;-57
2022/11/10 05:10:04;;;;;;;11.97;10.83;;;;;;;;;;5049862;28;20184;-57
2022/11/10 05:12:29;;;;;;;12.67;11.40;;;;;;;;;;5035655;28;20203;-57
2022/11/10 05:14:54;;;;;;;12.10;11.00;;;;;;;;;;5038226;28;20273;-57
2022/11/10 05:17:20;;;;;;;12.10;11.07;;;;;;;;;;5040199;28;20542;-57
2022/11/10 05:19:46;;;;;;;11.60;10.60;;;;;;;;;;5031127;28;20187;-57
2022/11/10 05:22:11;;;;;;;14.23;13.03;;;;;;;;;;5041055;28;20184;-56
2022/11/10 05:24:36;;;;;;;13.53;12.07;;;;;;;;;;5043892;28;20179;-56
2022/11/10 05:27:02;;;;;;;14.63;13.43;;;;;;;;;;5045293;28;20201;-56
2022/11/10 05:29:27;;;;;;;16.57;13.03;;;;;;;;;;5047812;28;20520;-56
2022/11/10 05:31:52;;;;;;;12.77;11.57;;;;;;;;;;5029873;28;20187;-57
2022/11/10 05:34:17;;;;;;;13.87;12.37;;;;;;;;;;5031358;28;20190;-57
2022/11/10 05:36:42;;;;;;;12.80;11.50;;;;;;;;;;5029319;28;20250;-56
2022/11/10 05:39:07;;;;;;;11.55;10.65;;;;;;;;;;5035358;28;20212;-55
2022/11/10 05:41:33;;;;;;;11.13;10.23;;;;;;;;;;5036901;28;20180;-57
2022/11/10 05:43:58;;;;;;;10.73;9.73;;;;;;;;;;5032255;28;20233;-56
2022/11/10 05:46:24;;;;;;;7.57;6.97;;;;;;;;;;5047189;28;20175;-60
2022/11/10 05:48:49;;;;;;;11.00;10.10;;;;;;;;;;5045871;28;20192;-57
2022/11/10 05:51:14;;;;;;;9.43;8.53;;;;;;;;;;5041584;28;20611;-55
2022/11/10 05:53:40;;;;;;;11.37;10.37;;;;;;;;;;5034443;28;20224;-57
2022/11/10 05:56:05;;;;;;;12.00;10.93;;;;;;;;;;5043794;28;20208;-55
2022/11/10 05:58:30;;;;;;;13.23;12.13;;;;;;;;;;5031994;28;20639;-55
2022/11/10 06:00:56;;;;;;;11.93;11.03;;;;;;;;;;5029942;28;20209;-56
2022/11/10 06:03:21;;;;;;;12.47;11.17;;;;;;;;;;5037508;28;20275;-56
2022/11/10 06:05:46;;;;;;;12.43;11.13;;;;;;;;;;5029582;28;20310;-56
2022/11/10 06:08:12;;;;;;;13.83;12.57;;;;;;;;;;5028192;28;20294;-57
2022/11/10 06:10:37;;;;;;;13.57;12.37;;;;;;;;;;5034017;28;20186;-55
2022/11/10 06:13:03;;;;;;;14.40;12.90;;;;;;;;;;5038668;28;20204;-56
2022/11/10 06:15:28;;;;;;;12.10;11.10;;;;;;;;;;5030977;28;20200;-57
2022/11/10 06:17:53;;;;;;;12.30;10.33;;;;;;;;;;5036265;28;20207;-56
2022/11/10 06:20:19;;;;;;;12.10;11.00;;;;;;;;;;5049080;28;20171;-56
2022/11/10 06:22:57;;;;;;;12.53;11.53;;;;;;;;;;5040728;28;20184;-57
2022/11/10 06:25:22;;;;;;;12.53;11.33;;;;;;;;;;5050990;28;20175;-56
2022/11/10 06:27:47;;;;;;;11.77;10.63;;;;;;;;;;5050905;28;21128;-57
2022/11/10 06:30:13;;;;;;;11.27;10.30;;;;;;;;;;5049208;28;20187;-55
2022/11/10 06:32:41;;;;;;;10.40;9.40;;;;;;;;;;5050145;28;20176;-56
2022/11/10 06:35:06;;;;;;;10.60;9.60;;;;;;;;;;5048938;28;20196;-56
2022/11/10 06:37:31;;;;;;;9.13;8.33;;;;;;;;;;5050756;28;20577;-56
2022/11/10 06:39:56;;;;;;;7.73;6.50;;;;;;;;;;5038828;28;20176;-56
2022/11/10 06:42:22;;;;;;;8.90;7.90;;;;;;;;;;5050615;28;20172;-56
2022/11/10 06:44:47;;;;;;;9.77;7.77;;;;;;;;;;5050580;28;20176;-57
2022/11/10 06:47:12;;;;;;;9.00;8.20;;;;;;;;;;5050105;28;20172;-56
2022/11/10 06:49:37;;;;;;;8.90;8.03;;;;;;;;;;5048995;28;20267;-56
2022/11/10 06:52:03;;;;;;;9.37;8.40;;;;;;;;;;5039951;28;20242;-56
2022/11/10 06:54:28;;;;;;;11.47;8.60;;;;;;;;;;5042242;28;20210;-56
2022/11/10 06:56:53;;;;;;;9.77;8.90;;;;;;;;;;5050091;28;20178;-56
2022/11/10 06:59:18;;;;;;;9.13;8.40;;;;;;;;;;5050291;28;20229;-57
2022/11/10 07:01:43;;;;;;;8.00;5.90;;;;;;;;;;5050477;28;20179;-56
2022/11/10 07:04:09;;;;;;;8.70;8.00;;;;;;;;;;5039033;28;20203;-58
2022/11/10 07:06:34;;;;;;;9.60;8.60;;;;;;;;;;5034360;28;20185;-58
2022/11/10 07:08:59;;;;;;;8.17;6.57;;;;;;;;;;5029924;28;20190;-58
2022/11/10 07:11:24;;;;;;;8.40;7.07;;;;;;;;;;5035561;28;20708;-57
2022/11/10 07:13:49;;;;;;;9.70;7.70;;;;;;;;;;5040046;28;20177;-57
2022/11/10 07:16:15;;;;;;;9.40;8.70;;;;;;;;;;5043674;28;20635;-57
2022/11/10 07:18:40;;;;;;;8.90;8.10;;;;;;;;;;5038398;28;20198;-62
2022/11/10 07:21:05;;;;;;;7.60;6.90;;;;;;;;;;5030748;28;20184;-57
2022/11/10 07:23:31;;;;;;;11.27;7.83;;;;;;;;;;5035796;28;20280;-57
2022/11/10 07:25:57;;;;;;;8.17;6.67;;;;;;;;;;5030102;28;20172;-56
2022/11/10 07:28:22;;;;;;;8.00;5.27;;;;;;;;;;5029604;28;20183;-57
2022/11/10 07:30:48;;;;;;;9.07;6.30;;;;;;;;;;5029902;28;20649;-57
2022/11/10 07:33:13;;;;;;;6.00;5.50;;;;;;;;;;5030991;28;20210;-58
2022/11/10 07:35:39;;;;;;;5.77;5.00;;;;;;;;;;5030245;28;20211;-57
2022/11/10 07:38:05;;;;;;;4.20;3.80;;;;;;;;;;5030704;28;20182;-57
2022/11/10 07:40:30;;;;;;;6.00;4.13;;;;;;;;;;5029406;28;20178;-58
2022/11/10 07:42:56;;;;;;;5.67;3.53;;;;;;;;;;5046541;28;20584;-57
2022/11/10 07:45:21;;;;;;;6.70;3.83;;;;;;;;;;5042061;28;20238;-56
2022/11/10 07:47:46;;;;;;;5.90;3.67;;;;;;;;;;5050745;28;20193;-56
2022/11/10 07:50:12;;;;;;;6.40;3.90;;;;;;;;;;5053989;28;20258;-55
2022/11/10 07:52:37;;;;;;;4.17;3.77;;;;;;;;;;5044769;28;20678;-56
2022/11/10 07:55:03;;;;;;;4.40;4.10;;;;;;;;;;5033757;28;20209;-55
2022/11/10 07:57:28;;;;;;;5.77;3.67;;;;;;;;;;5033782;28;20201;-56
2022/11/10 07:59:53;;;;;;;10.17;4.23;;;;;;;;;;5046877;28;20625;-55
2022/11/10 08:02:18;;;;;;;4.40;3.80;;;;;;;;;;5053852;28;20179;-56
2022/11/10 08:04:44;;;;;;;6.43;4.57;;;;;;;;;;5047065;28;20176;-56
2022/11/10 08:07:09;;;;;;;5.30;3.80;;;;;;;;;;5033690;28;20180;-56
2022/11/10 08:09:34;;;;;;;6.90;4.07;;;;;;;;;;5033595;28;20186;-55
2022/11/10 08:11:59;;;;;;;5.60;4.30;;;;;;;;;;5033506;28;20209;-57
2022/11/10 08:14:24;;;;;;;4.93;3.40;;;;;;;;;;5033443;28;20199;-57
2022/11/10 08:16:50;;;;;;;5.17;4.30;;;;;;;;;;5033069;28;20206;-57
2022/11/10 08:19:15;;;;;;;8.70;4.00;;;;;;;;;;5048122;28;20583;-56
2022/11/10 08:21:40;;;;;;;6.27;4.00;;;;;;;;;;5053615;28;20629;-56
2022/11/10 08:24:05;;;;;;;5.40;4.10;;;;;;;;;;5053271;28;20175;-56
2022/11/10 08:26:31;;;;;;;8.23;3.90;;;;;;;;;;5053405;28;20173;-55
2022/11/10 08:28:57;;;;;;;4.27;3.67;;;;;;;;;;5039945;28;20182;-56
2022/11/10 08:31:22;;;;;;;5.37;3.90;;;;;;;;;;5033441;28;20583;-55
2022/11/10 08:33:47;;;;;;;4.03;3.20;;;;;;;;;;5033149;28;20200;-56
2022/11/10 08:36:13;;;;;;;5.67;3.97;;;;;;;;;;5033068;28;20687;-57
2022/11/10 08:38:38;;;;;;;5.93;3.90;;;;;;;;;;5033150;28;20195;-56
2022/11/10 08:41:03;;;;;;;6.30;3.57;;;;;;;;;;5032893;28;20816;-55
2022/11/10 08:43:29;;;;;;;5.10;3.57;;;;;;;;;;5032815;28;20174;-56
2022/11/10 08:45:57;;;;;;;4.83;3.63;;;;;;;;;;5032934;28;20666;-57
2022/11/10 08:48:22;;;;;;;6.57;4.00;;;;;;;;;;5032569;28;20208;-56
2022/11/10 08:50:48;;;;;;;6.07;3.60;;;;;;;;;;5032890;28;20593;-56
2022/11/10 08:53:15;;;;;;;4.00;3.50;;;;;;;;;;5032296;28;20765;-57
2022/11/10 08:55:40;;;;;;;6.00;3.93;;;;;;;;;;5031910;28;20197;-57
2022/11/10 08:58:07;;;;;;;6.50;3.57;;;;;;;;;;5043569;28;20943;-56
2022/11/10 09:00:33;;;;;;;8.27;3.57;;;;;;;;;;5052730;28;20188;-56
2022/11/10 09:03:27;;;;;;;6.13;3.50;;;;;;;;;;5052358;28;20564;-56
2022/11/10 09:05:53;;;;;;;4.60;3.30;;;;;;;;;;5040364;28;20193;-55
2022/11/10 09:08:18;;;;;;;4.83;3.80;;;;;;;;;;5032635;28;20571;-56
2022/11/10 09:10:45;;;;;;;5.70;3.17;;;;;;;;;;5032707;28;20226;-56
2022/11/10 09:13:11;;;;;;;4.70;3.53;;;;;;;;;;5032255;28;20196;-56
2022/11/10 09:15:37;;;;;;;7.30;3.53;;;;;;;;;;5032121;28;21287;-55
2022/11/10 09:18:03;;;;;;;5.70;3.20;;;;;;;;;;5032768;28;20693;-57
2022/11/10 09:20:29;;;;;;;5.17;3.60;;;;;;;;;;5032453;28;20262;-56
2022/11/10 09:22:54;;;;;;;7.03;3.70;;;;;;;;;;5032397;28;20573;-56
2022/11/10 09:25:20;;;;;;;4.50;3.60;;;;;;;;;;5032299;28;20600;-56
2022/11/10 09:27:45;;;;;;;5.00;3.20;;;;;;;;;;5032320;28;20184;-56
2022/11/10 09:30:10;;;;;;;6.07;4.37;;;;;;;;;;5031836;28;20258;-57
2022/11/10 09:32:36;;;;;;;11.33;3.43;;;;;;;;;;5032149;28;20222;-56
2022/11/10 09:35:01;;;;;;;4.43;3.67;;;;;;;;;;5032042;28;20274;-55
2022/11/10 09:37:26;;;;;;;3.97;3.00;;;;;;;;;;5032160;28;20258;-57
2022/11/10 09:39:52;;;;;;;5.83;3.40;;;;;;;;;;5031562;28;20211;-56
2022/11/10 09:42:37;;;;;;;7.73;3.90;;;;;;;;;;5031656;28;20173;-56
2022/11/10 09:45:10;;;;;;;7.10;3.87;;;;;;;;;;5031459;28;20184;-56
2022/11/10 09:47:43;;;;;;;5.90;3.47;;;;;;;;;;5031827;28;20592;-56
2022/11/10 09:50:13;;;;;;;6.73;4.10;;;;;;;;;;5031479;28;21212;-55
2022/11/10 09:52:39;;;;;;;6.13;3.77;;;;;;;;;;5030812;28;20749;-56
2022/11/10 09:55:17;;;;;;;6.70;4.20;;;;;;;;;;5031467;28;20724;-56
2022/11/10 09:57:42;;;;;;;3.73;3.30;;;;;;;;;;5050756;28;20221;-56
2022/11/10 10:00:12;;;;;;;6.37;3.80;;;;;;;;;;5051173;28;20577;-55
2022/11/10 10:02:39;;;;;;;5.70;3.80;;;;;;;;;;5044043;28;20211;-56
2022/11/10 10:05:24;;;;;;;5.53;3.80;;;;;;;;;;5031329;28;21126;-56
2022/11/10 10:07:53;;;;;;;7.30;4.10;;;;;;;;;;5031335;28;20638;-56
2022/11/10 10:10:38;;;;;;;4.30;3.30;;;;;;;;;;5031244;28;20984;-56
2022/11/10 10:13:03;;;;;;;7.90;3.70;;;;;;;;;;5030927;28;20603;-56
2022/11/10 10:15:31;;;;;;;6.55;3.83;;;;;;;;;;5031067;28;20947;-56
2022/11/10 10:18:15;;;;;;;5.77;3.90;;;;;;;;;;5031051;28;20165;-56
2022/11/10 10:20:58;;;;;;;6.77;3.67;;;;;;;;;;5030755;28;20589;-56
2022/11/10 10:23:24;;;;;;;5.53;3.70;;;;;;;;;;5035265;28;21228;-57
2022/11/10 10:25:51;;;;;;;5.60;4.00;;;;;;;;;;5031306;28;20590;-57
2022/11/10 10:28:17;;;;;;;5.10;3.43;;;;;;;;;;5030542;28;20273;-57
2022/11/10 10:30:42;;;;;;;5.72;4.18;;;;;;;;;;5031135;28;21168;-57
2022/11/10 10:33:12;;;;;;;5.63;3.73;;;;;;;;;;5030333;28;20708;-56
2022/11/10 10:35:37;;;;;;;7.70;3.67;;;;;;;;;;5030792;28;20231;-56
2022/11/10 10:38:03;;;;;;;6.90;4.20;;;;;;;;;;5030648;28;20634;-56
2022/11/10 10:40:28;;;;;;;5.17;3.50;;;;;;;;;;5030615;28;20173;-56
2022/11/10 10:42:54;;;;;;;5.53;3.57;;;;;;;;;;5030554;28;20970;-56
2022/11/10 10:45:23;;;;;;;6.13;4.00;;;;;;;;;;5030699;28;20216;-56
2022/11/10 10:47:50;;;;;;;4.90;3.70;;;;;;;;;;5030646;28;20625;-56
2022/11/10 10:50:23;;;;;;;5.80;3.73;;;;;;;;;;5030013;28;20576;-57
2022/11/10 10:53:05;;;;;;;6.30;3.63;;;;;;;;;;5030561;28;20741;-57
2022/11/10 10:55:30;;;;;;;5.27;3.90;;;;;;;;;;5033139;28;20663;-56
2022/11/10 10:57:57;;;;;;;5.53;3.30;;;;;;;;;;5030669;28;20585;-57
2022/11/10 11:00:22;;;;;;;4.83;3.63;;;;;;;;;;5030599;28;20262;-56
2022/11/10 11:03:04;;;;;;;3.67;2.87;;;;;;;;;;5030524;28;20679;-56
2022/11/10 11:05:29;;;;;;;4.40;3.40;;;;;;;;;;5032741;28;21160;-57
2022/11/10 11:07:58;;;;;;;6.37;3.50;;;;;;;;;;5050476;28;20582;-57
2022/11/10 11:10:28;;;;;;;10.87;3.80;;;;;;;;;;5050204;28;20177;-59
2022/11/10 11:12:54;;;;;;;5.90;3.60;;;;;;;;;;5050196;28;21188;-56
2022/11/10 11:15:21;;;;;;;8.33;3.63;;;;;;;;;;5050139;28;20639;-58
2022/11/10 11:17:53;;;;;;;7.73;3.20;;;;;;;;;;5030615;28;20178;-57
2022/11/10 11:20:19;;;;;;;3.93;3.27;;;;;;;;;;5035952;28;20612;-57
2022/11/10 11:22:55;;;;;;;5.20;3.50;;;;;;;;;;5050221;28;20684;-58
2022/11/10 11:25:30;;;;;;;6.70;3.20;;;;;;;;;;5050258;28;20177;-56
2022/11/10 11:28:04;;;;;;;8.40;3.07;;;;;;;;;;5034496;28;20798;-56
2022/11/10 11:30:37;;;;;;;5.77;3.57;;;;;;;;;;5030511;28;20641;-57
2022/11/10 11:33:08;;;;;;;6.33;3.63;;;;;;;;;;5030310;28;20675;-55
2022/11/10 11:35:56;;;;;;;4.90;3.37;;;;;;;;;;5030011;28;21209;-56
2022/11/10 11:38:43;;;;;;;4.50;2.90;;;;;;;;;;5029745;28;20617;-56
2022/11/10 11:41:11;;;;;;;4.93;3.20;;;;;;;;;;5030057;28;20564;-56
2022/11/10 11:43:43;;;;;;;3.27;2.97;;;;;;;;;;5030025;28;20670;-56
2022/11/10 11:46:27;;;;;;;4.00;3.10;;;;;;;;;;5030058;28;20596;-56
2022/11/10 11:48:55;;;;;;;5.90;2.93;;;;;;;;;;5043054;28;20617;-56
2022/11/10 11:51:27;;;;;;;4.37;2.93;;;;;;;;;;5049954;28;20580;-56
2022/11/10 11:54:01;;;;;;;4.80;2.87;;;;;;;;;;5049463;28;20640;-57
2022/11/10 11:56:29;;;;;;;7.70;3.00;;;;;;;;;;5049835;28;20641;-57
2022/11/10 11:59:00;;;;;;;3.67;3.37;;;;;;;;;;5047755;28;20678;-57
2022/11/10 12:01:38;;;;;;;5.40;3.47;;;;;;;;;;5049767;28;20600;-57
2022/11/10 12:04:13;;;;;;;7.90;3.10;;;;;;;;;;5049928;28;20577;-56
2022/11/10 12:06:43;;;;;;;4.40;3.30;;;;;;;;;;5049736;28;20584;-56
2022/11/10 12:09:09;;;;;;;5.13;2.73;;;;;;;;;;5040714;28;20625;-55
2022/11/10 12:11:53;;;;;;;6.57;3.30;;;;;;;;;;5040736;28;20637;-55
2022/11/10 12:14:18;;;;;;;4.30;3.10;;;;;;;;;;5049597;28;20647;-56
2022/11/10 12:16:48;;;;;;;6.17;3.33;;;;;;;;;;5049990;28;20635;-56
2022/11/10 12:19:22;;;;;;;3.70;2.90;;;;;;;;;;5043886;28;20252;-55
2022/11/10 12:21:54;;;;;;;6.13;3.10;;;;;;;;;;5030045;28;20586;-55
2022/11/10 12:24:19;;;;;;;6.23;3.20;;;;;;;;;;5029641;28;20573;-57
2022/11/10 12:26:51;;;;;;;8.17;4.17;;;;;;;;;;5029847;28;20596;-56
2022/11/10 12:29:29;;;;;;;5.70;3.90;;;;;;;;;;5028953;28;20183;-56
2022/11/10 12:31:57;;;;;;;3.73;2.80;;;;;;;;;;5052641;28;20614;-56
2022/11/10 12:34:28;;;;;;;3.93;2.83;;;;;;;;;;5052978;28;20657;-56
2022/11/10 12:36:53;;;;;;;4.87;2.80;;;;;;;;;;5053095;28;21324;-56
2022/11/10 12:39:42;;;;;;;6.10;3.50;;;;;;;;;;5052702;28;20570;-56
2022/11/10 12:42:11;;;;;;;4.53;2.83;;;;;;;;;;5033605;28;20177;-56
2022/11/10 12:44:48;;;;;;;6.70;3.27;;;;;;;;;;5033159;28;20585;-57
2022/11/10 12:47:15;;;;;;;3.00;2.70;;;;;;;;;;5033513;28;21075;-57
2022/11/10 12:49:47;;;;;;;4.10;2.67;;;;;;;;;;5032408;28;20941;-57
2022/11/10 12:52:20;;;;;;;3.60;2.70;;;;;;;;;;5038816;28;20609;-57
2022/11/10 12:54:45;;;;;;;6.23;2.53;;;;;;;;;;5051301;28;20644;-57
2022/11/10 12:57:14;;;;;;;5.20;3.07;;;;;;;;;;5052281;28;20606;-56
2022/11/10 12:59:40;;;;;;;6.20;3.50;;;;;;;;;;5052310;28;20172;-56
2022/11/10 13:02:20;;;;;;;3.47;3.00;;;;;;;;;;5042461;28;20614;-56
2022/11/10 13:04:45;;;;;;;5.17;2.77;;;;;;;;;;5032380;28;20914;-56
2022/11/10 13:07:11;;;;;;;4.00;2.87;;;;;;;;;;5032270;28;20582;-57
2022/11/10 13:09:38;;;;;;;3.13;2.60;;;;;;;;;;5031854;28;20180;-56
2022/11/10 13:12:09;;;;;;;8.13;3.10;;;;;;;;;;5032103;28;20661;-56
2022/11/10 13:14:35;;;;;;;6.70;2.50;;;;;;;;;;5031884;28;20618;-57
2022/11/10 13:17:01;;;;;;;3.03;2.47;;;;;;;;;;5046183;28;20599;-57
2022/11/10 13:19:26;;;;;;;3.97;2.80;;;;;;;;;;5051865;28;20584;-56
2022/11/10 13:21:51;;;;;;;4.50;3.07;;;;;;;;;;5052117;28;20179;-56
2022/11/10 13:24:19;;;;;;;4.93;2.90;;;;;;;;;;5039463;28;20191;-56
2022/11/10 13:26:46;;;;;;;3.87;3.00;;;;;;;;;;5031861;28;20182;-57
2022/11/10 13:29:33;;;;;;;4.90;2.60;;;;;;;;;;5034540;28;20624;-56
2022/11/10 13:32:18;;;;;;;4.40;2.80;;;;;;;;;;5037078;28;20648;-56
2022/11/10 13:34:45;;;;;;;5.17;3.10;;;;;;;;;;5051913;28;20598;-57
2022/11/10 13:37:28;;;;;;;6.40;3.10;;;;;;;;;;5039926;28;20601;-56
2022/11/10 13:40:12;;;;;;;3.60;2.60;;;;;;;;;;5042972;28;20697;-58
2022/11/10 13:42:37;;;;;;;5.13;2.43;;;;;;;;;;5034837;28;20680;-57
2022/11/10 13:45:21;;;;;;;3.20;2.30;;;;;;;;;;5032285;28;21157;-57
2022/11/10 13:47:55;;;;;;;4.37;2.63;;;;;;;;;;5048475;28;20189;-56
2022/11/10 13:50:43;;;;;;;7.40;3.07;;;;;;;;;;5050096;28;21139;-56
2022/11/10 13:53:11;;;;;;;7.93;2.87;;;;;;;;;;5051508;28;20664;-57
2022/11/10 13:55:42;;;;;;;3.10;2.60;;;;;;;;;;5049188;28;20659;-57
2022/11/10 13:58:09;;;;;;;5.70;3.23;;;;;;;;;;5051618;28;20571;-58
2022/11/10 14:00:34;;;;;;;4.10;3.13;;;;;;;;;;5050693;28;20791;-56
2022/11/10 14:03:04;;;;;;;4.80;2.80;;;;;;;;;;5051490;28;20630;-56
2022/11/10 14:05:29;;;;;;;3.27;2.93;;;;;;;;;;5035725;28;20187;-56
2022/11/10 14:07:56;;;;;;;4.10;2.70;;;;;;;;;;5031455;28;20613;-56
2022/11/10 14:10:32;;;;;;;3.83;2.60;;;;;;;;;;5031298;28;20174;-61
2022/11/10 14:13:04;;;;;;;3.63;3.27;;;;;;;;;;5041261;28;20629;-57
2022/11/10 14:15:37;;;;;;;4.63;3.53;;;;;;;;;;5037480;28;20648;-56
2022/11/10 14:18:12;;;;;;;5.00;3.50;;;;;;;;;;5042874;28;20662;-56
2022/11/10 14:20:40;;;;;;;5.47;3.30;;;;;;;;;;5030927;28;20632;-56
2022/11/10 14:23:07;;;;;;;5.07;3.20;;;;;;;;;;5041336;28;20633;-56
2022/11/10 14:25:35;;;;;;;6.23;3.50;;;;;;;;;;5035033;28;21335;-56
2022/11/10 14:28:00;;;;;;;3.80;3.47;;;;;;;;;;5045744;28;20743;-56
2022/11/10 14:30:26;;;;;;;3.50;3.23;;;;;;;;;;5033854;28;20698;-56
2022/11/10 14:33:01;;;;;;;5.30;4.20;;;;;;;;;;5031099;28;20201;-56
2022/11/10 14:35:28;;;;;;;3.57;3.10;;;;;;;;;;5030445;28;20706;-57
2022/11/10 14:37:57;;;;;;;5.37;2.90;;;;;;;;;;5041525;28;20608;-56
2022/11/10 14:40:22;;;;;;;6.23;3.10;;;;;;;;;;5048809;28;20620;-56
2022/11/10 14:42:47;;;;;;;3.87;2.83;;;;;;;;;;5042582;28;20679;-56
2022/11/10 14:45:20;;;;;;;4.13;2.90;;;;;;;;;;5035326;28;20186;-57
2022/11/10 14:48:09;;;;;;;4.83;3.17;;;;;;;;;;5039865;28;20172;-55
2022/11/10 14:50:34;;;;;;;4.70;2.97;;;;;;;;;;5043189;28;20696;-59
2022/11/10 14:53:01;;;;;;;3.90;3.43;;;;;;;;;;5039785;28;21136;-56